Time;durP1;ratioP1;P1;durP2;ratioP2;P2;SDS_P1;SDS_P2;PMS_P1;PMS_P2;Temp;Humidity;BMP_temperature;BMP_pressure;BME280_temperature;BME280_humidity;BME280_pressure;Samples;Min_cycle;Max_cycle;Signal;HPM_P1;HPM_P2
2023/08/21 00:02:02;;;;;;;14.23;11.10;;;22.40;99.90;;;;;;5015584;28;20488;-80
2023/08/21 00:04:28;;;;;;;12.20;10.90;;;22.40;99.90;;;;;;5011803;28;20115;-81
2023/08/21 00:06:54;;;;;;;12.93;10.68;;;22.30;99.90;;;;;;5003255;28;20034;-80
2023/08/21 00:09:20;;;;;;;12.52;10.52;;;22.30;99.90;;;;;;5014760;28;20044;-80
2023/08/21 00:11:45;;;;;;;12.52;11.23;;;22.30;99.90;;;;;;5031396;28;20052;-79
2023/08/21 00:14:11;;;;;;;12.02;10.75;;;22.30;99.90;;;;;;5020209;28;20034;-79
2023/08/21 00:16:37;;;;;;;12.50;10.60;;;22.20;99.90;;;;;;5003876;28;20231;-78
2023/08/21 00:19:03;;;;;;;14.48;11.32;;;22.20;99.90;;;;;;4998692;28;20114;-81
2023/08/21 00:21:29;;;;;;;16.17;11.23;;;22.20;99.90;;;;;;5013238;28;20707;-80
2023/08/21 00:23:55;;;;;;;11.63;10.45;;;22.20;99.90;;;;;;5023886;28;20022;-79
2023/08/21 00:26:20;;;;;;;13.45;11.10;;;22.10;99.90;;;;;;5019748;28;20049;-79
2023/08/21 00:28:46;;;;;;;11.90;10.65;;;22.10;99.90;;;;;;5013689;28;20034;-79
2023/08/21 00:31:12;;;;;;;11.68;10.52;;;22.10;99.90;;;;;;5034094;28;20061;-78
2023/08/21 00:33:38;;;;;;;13.95;10.32;;;22.10;99.90;;;;;;5006476;28;20034;-79
2023/08/21 00:36:04;;;;;;;13.32;11.57;;;22.00;99.90;;;;;;5022127;28;20312;-81
2023/08/21 00:38:30;;;;;;;13.77;11.30;;;22.00;99.90;;;;;;5009858;28;20039;-80
2023/08/21 00:40:57;;;;;;;12.60;11.30;;;22.00;99.90;;;;;;5032289;28;20038;-80
2023/08/21 00:43:23;;;;;;;14.27;10.85;;;22.00;99.90;;;;;;5024368;28;20054;-79
2023/08/21 00:45:50;;;;;;;13.65;11.25;;;22.00;99.90;;;;;;5016094;28;20030;-80
2023/08/21 00:48:17;;;;;;;13.85;10.82;;;22.00;99.90;;;;;;5015767;28;20255;-79
2023/08/21 00:50:44;;;;;;;13.43;10.95;;;21.90;99.90;;;;;;5007582;28;20030;-79
2023/08/21 00:53:10;;;;;;;13.82;11.15;;;21.90;99.90;;;;;;5037832;28;20084;-79
2023/08/21 00:55:37;;;;;;;13.85;11.05;;;21.90;99.90;;;;;;5031471;28;20045;-80
2023/08/21 00:58:04;;;;;;;12.52;11.32;;;21.90;99.90;;;;;;5005823;28;20045;-79
2023/08/21 01:00:30;;;;;;;11.93;10.73;;;21.90;99.90;;;;;;5013102;28;20042;-81
2023/08/21 01:02:56;;;;;;;13.48;12.07;;;21.80;99.90;;;;;;4994682;28;20068;-80
2023/08/21 01:05:23;;;;;;;11.40;10.20;;;21.80;99.90;;;;;;5009738;28;20034;-80
2023/08/21 01:08:06;;;;;;;14.43;11.75;;;21.80;99.90;;;;;;5008651;28;20038;-77
2023/08/21 01:10:54;;;;;;;13.50;11.10;;;21.80;99.90;;;;;;5031584;28;20034;-80
2023/08/21 01:13:34;;;;;;;14.30;12.43;;;21.80;99.90;;;;;;5027378;28;20022;-78
2023/08/21 01:16:01;;;;;;;13.35;11.75;;;21.80;99.90;;;;;;5015222;28;20030;-80
2023/08/21 01:18:28;;;;;;;13.07;11.68;;;21.80;99.90;;;;;;5016197;28;20026;-79
2023/08/21 01:20:55;;;;;;;14.63;12.05;;;21.70;99.90;;;;;;5028274;28;20509;-79
2023/08/21 01:23:35;;;;;;;12.88;11.43;;;21.70;99.90;;;;;;5008014;28;20445;-77
2023/08/21 01:26:00;;;;;;;13.43;11.07;;;21.70;99.90;;;;;;5029646;28;20057;-78
2023/08/21 01:28:27;;;;;;;13.18;11.88;;;21.70;99.90;;;;;;5014702;28;20046;-79
2023/08/21 01:31:14;;;;;;;13.77;11.38;;;21.60;99.90;;;;;;5025568;28;20038;-79
2023/08/21 01:33:45;;;;;;;13.10;11.70;;;21.60;99.90;;;;;;5024295;28;20197;-79
2023/08/21 01:36:12;;;;;;;12.30;11.00;;;21.60;99.90;;;;;;5023298;28;20029;-80
2023/08/21 01:38:38;;;;;;;13.05;11.75;;;21.60;99.90;;;;;;5014092;28;20058;-79
2023/08/21 01:41:04;;;;;;;13.13;11.73;;;21.60;99.90;;;;;;5017659;28;20026;-80
2023/08/21 01:43:30;;;;;;;16.70;12.20;;;21.50;99.90;;;;;;5022435;28;20448;-80
2023/08/21 01:45:56;;;;;;;13.40;12.02;;;21.50;99.90;;;;;;5020564;28;20692;-78
2023/08/21 01:48:22;;;;;;;14.25;12.38;;;21.40;99.90;;;;;;5023197;28;20026;-79
2023/08/21 01:50:47;;;;;;;14.27;12.20;;;21.40;99.90;;;;;;5009309;28;20041;-80
2023/08/21 01:53:13;;;;;;;15.55;12.50;;;21.40;99.90;;;;;;5011994;28;20022;-81
2023/08/21 01:55:39;;;;;;;13.93;12.52;;;21.40;99.90;;;;;;5011082;28;20120;-79
2023/08/21 01:58:05;;;;;;;12.95;11.63;;;21.40;99.90;;;;;;5004097;28;20492;-81
2023/08/21 02:00:30;;;;;;;13.07;11.65;;;21.30;99.90;;;;;;5016846;28;20049;-79
2023/08/21 02:02:56;;;;;;;13.25;11.85;;;21.30;99.90;;;;;;5027342;28;20136;-78
2023/08/21 02:05:22;;;;;;;15.10;11.93;;;21.30;99.90;;;;;;5024868;28;20064;-79
2023/08/21 02:07:48;;;;;;;13.30;11.85;;;21.20;99.90;;;;;;5019363;28;20030;-79
2023/08/21 02:10:13;;;;;;;13.82;11.60;;;21.20;99.90;;;;;;5011162;28;20030;-78
2023/08/21 02:12:39;;;;;;;12.88;11.57;;;21.20;99.90;;;;;;5033366;28;20080;-78
2023/08/21 02:15:06;;;;;;;12.38;11.07;;;21.20;99.90;;;;;;5021394;28;20058;-79
2023/08/21 02:17:32;;;;;;;13.48;10.60;;;21.20;99.90;;;;;;5038438;28;20045;-81
2023/08/21 02:19:58;;;;;;;12.05;10.85;;;21.20;99.90;;;;;;5007576;28;20030;-78
2023/08/21 02:22:24;;;;;;;12.30;11.10;;;21.20;99.90;;;;;;5016627;28;20060;-81
2023/08/21 02:24:50;;;;;;;12.95;11.05;;;21.10;99.90;;;;;;5036805;28;20030;-80
2023/08/21 02:27:17;;;;;;;13.30;11.80;;;21.10;99.90;;;;;;5037115;28;20030;-80
2023/08/21 02:29:43;;;;;;;12.63;11.43;;;21.10;99.90;;;;;;5025514;28;20407;-81
2023/08/21 02:32:08;;;;;;;12.70;11.50;;;21.10;99.90;;;;;;5016454;28;20105;-81
2023/08/21 02:34:34;;;;;;;13.18;11.80;;;21.00;99.90;;;;;;5023927;28;20040;-80
2023/08/21 02:37:00;;;;;;;13.05;11.75;;;21.00;99.90;;;;;;5017494;28;20029;-81
2023/08/21 02:39:28;;;;;;;13.95;12.05;;;21.00;99.90;;;;;;5011002;28;20038;-81
2023/08/21 02:41:53;;;;;;;14.00;12.13;;;20.90;99.90;;;;;;5010937;28;20030;-80
2023/08/21 02:44:19;;;;;;;14.07;11.70;;;20.90;99.90;;;;;;5010774;28;20092;-81
2023/08/21 02:46:46;;;;;;;13.38;11.95;;;20.90;99.90;;;;;;5005885;28;20066;-82
2023/08/21 02:49:12;;;;;;;14.18;12.52;;;20.90;99.90;;;;;;5003412;28;20053;-80
2023/08/21 02:51:38;;;;;;;15.40;12.98;;;20.80;99.90;;;;;;5006123;28;20110;-82
2023/08/21 02:54:04;;;;;;;14.10;12.07;;;20.80;99.90;;;;;;5016463;28;20147;-82
2023/08/21 02:56:30;;;;;;;17.30;12.10;;;20.80;99.90;;;;;;5013083;28;20045;-81
2023/08/21 02:58:56;;;;;;;17.10;13.32;;;20.80;99.90;;;;;;5002901;28;20121;-81
2023/08/21 03:01:22;;;;;;;13.65;12.20;;;20.80;99.90;;;;;;5020693;28;20034;-79
2023/08/21 03:03:47;;;;;;;15.63;11.88;;;20.80;99.90;;;;;;5029759;28;20026;-82
2023/08/21 03:06:16;;;;;;;12.70;11.38;;;20.70;99.90;;;;;;5008579;28;20034;-81
2023/08/21 03:08:43;;;;;;;13.68;12.18;;;20.70;99.90;;;;;;5029470;28;20443;-81
2023/08/21 03:11:09;;;;;;;14.80;12.48;;;20.70;99.90;;;;;;5014415;28;20039;-80
2023/08/21 03:13:35;;;;;;;13.25;11.20;;;20.70;99.90;;;;;;5043575;28;20074;-81
2023/08/21 03:16:01;;;;;;;15.52;12.18;;;20.70;99.90;;;;;;5023402;28;20125;-80
2023/08/21 03:18:31;;;;;;;13.52;12.13;;;20.60;99.90;;;;;;5018210;28;20025;-81
2023/08/21 03:20:57;;;;;;;14.00;12.52;;;20.60;99.90;;;;;;5015026;28;20113;-80
2023/08/21 03:23:23;;;;;;;15.80;13.07;;;20.60;99.90;;;;;;5032982;28;20052;-79
2023/08/21 03:25:52;;;;;;;17.60;13.40;;;20.60;99.90;;;;;;4998683;28;20107;-81
2023/08/21 03:28:18;;;;;;;15.27;13.15;;;20.60;99.90;;;;;;5011641;28;20096;-80
2023/08/21 03:30:44;;;;;;;14.77;13.32;;;20.60;99.90;;;;;;5027822;28;20097;-79
2023/08/21 03:33:10;;;;;;;14.63;13.02;;;20.60;99.90;;;;;;5024415;28;20117;-78
2023/08/21 03:35:37;;;;;;;15.00;13.07;;;20.60;99.90;;;;;;5015010;28;20037;-80
2023/08/21 03:38:03;;;;;;;14.95;13.35;;;20.60;99.90;;;;;;5026173;28;20038;-78
2023/08/21 03:40:33;;;;;;;15.43;12.73;;;20.50;99.90;;;;;;5025456;28;20022;-79
2023/08/21 03:42:59;;;;;;;15.05;13.45;;;20.60;99.90;;;;;;5010251;28;20185;-80
2023/08/21 03:45:24;;;;;;;15.48;12.27;;;20.50;99.90;;;;;;5007983;28;20034;-80
2023/08/21 03:47:53;;;;;;;14.43;12.82;;;20.50;99.90;;;;;;4996354;28;20535;-79
2023/08/21 03:50:19;;;;;;;14.25;12.57;;;20.50;99.90;;;;;;5004707;28;20042;-80
2023/08/21 03:52:45;;;;;;;13.75;12.30;;;20.50;99.90;;;;;;5014038;28;20034;-80
2023/08/21 03:55:11;;;;;;;13.70;11.93;;;20.50;99.90;;;;;;5032428;28;20148;-80
2023/08/21 03:57:37;;;;;;;17.58;12.75;;;20.50;99.90;;;;;;5012575;28;20057;-82
2023/08/21 04:00:05;;;;;;;14.52;13.02;;;20.50;99.90;;;;;;5029838;28;20025;-81
2023/08/21 04:02:41;;;;;;;17.35;13.13;;;20.50;99.90;;;;;;5029152;28;20505;-81
2023/08/21 04:05:07;;;;;;;13.35;11.88;;;20.50;99.90;;;;;;5012946;28;20096;-82
2023/08/21 04:07:32;;;;;;;14.45;12.35;;;20.40;99.90;;;;;;5024339;28;20030;-80
2023/08/21 04:09:59;;;;;;;14.27;12.77;;;20.40;99.90;;;;;;4994441;28;20035;-80
2023/08/21 04:12:26;;;;;;;14.93;13.43;;;20.40;99.90;;;;;;5017926;28;20079;-77
2023/08/21 04:14:52;;;;;;;15.18;13.63;;;20.30;99.90;;;;;;5017032;28;20084;-80
2023/08/21 04:17:24;;;;;;;19.23;14.70;;;20.30;99.90;;;;;;5032426;28;20046;-82
2023/08/21 04:19:50;;;;;;;15.85;14.18;;;20.20;99.90;;;;;;5028301;28;20030;-79
2023/08/21 04:22:16;;;;;;;15.35;13.30;;;20.20;99.90;;;;;;5016947;28;20108;-82
2023/08/21 04:24:42;;;;;;;16.88;14.40;;;20.10;99.90;;;;;;5015500;28;20482;-80
2023/08/21 04:27:08;;;;;;;15.77;14.15;;;20.10;99.90;;;;;;5025758;28;20120;-80
2023/08/21 04:29:39;;;;;;;18.35;13.85;;;20.10;99.90;;;;;;5009050;28;20035;-79
2023/08/21 04:32:06;;;;;;;16.05;14.15;;;20.00;99.90;;;;;;5020988;28;20486;-79
2023/08/21 04:34:33;;;;;;;16.35;14.57;;;20.10;99.90;;;;;;5012634;28;20026;-81
2023/08/21 04:36:59;;;;;;;17.77;13.95;;;20.10;99.90;;;;;;5032705;28;20033;-78
2023/08/21 04:39:27;;;;;;;15.73;13.63;;;20.10;99.90;;;;;;5025581;28;20022;-81
2023/08/21 04:41:53;;;;;;;15.63;13.15;;;20.10;99.90;;;;;;5010535;28;20030;-80
2023/08/21 04:44:19;;;;;;;16.05;12.98;;;20.10;99.90;;;;;;5007091;28;20081;-81
2023/08/21 04:46:51;;;;;;;13.77;12.35;;;20.10;99.90;;;;;;5028980;28;20042;-80
2023/08/21 04:49:17;;;;;;;14.52;11.80;;;20.10;99.90;;;;;;5029679;28;20128;-80
2023/08/21 04:51:43;;;;;;;12.27;11.07;;;20.10;99.90;;;;;;5033757;28;20137;-80
2023/08/21 04:54:10;;;;;;;14.52;12.07;;;20.10;99.90;;;;;;5020381;28;20052;-80
2023/08/21 04:56:35;;;;;;;14.68;12.75;;;20.10;99.90;;;;;;5020666;28;20049;-82
2023/08/21 04:59:02;;;;;;;13.82;12.38;;;20.10;99.90;;;;;;5015148;28;20680;-81
2023/08/21 05:01:29;;;;;;;16.10;12.05;;;20.10;99.90;;;;;;5025312;28;20063;-80
2023/08/21 05:03:57;;;;;;;14.65;12.82;;;20.10;99.90;;;;;;5021832;28;20461;-80
2023/08/21 05:06:23;;;;;;;15.27;13.45;;;20.20;99.90;;;;;;5020578;28;20037;-79
2023/08/21 05:08:50;;;;;;;16.33;14.02;;;20.20;99.90;;;;;;5020386;28;20038;-80
2023/08/21 05:11:16;;;;;;;15.00;12.30;;;20.20;99.90;;;;;;5013405;28;20038;-81
2023/08/21 05:13:42;;;;;;;15.75;13.68;;;20.20;99.90;;;;;;5018123;28;20653;-79
2023/08/21 05:16:10;;;;;;;13.82;12.10;;;20.20;99.90;;;;;;5025794;28;20033;-81
2023/08/21 05:18:38;;;;;;;12.82;11.38;;;20.30;99.90;;;;;;5008133;28;20058;-81
2023/08/21 05:21:04;;;;;;;13.05;11.75;;;20.30;99.90;;;;;;5025637;28;20026;-82
2023/08/21 05:23:30;;;;;;;13.23;11.82;;;20.30;99.90;;;;;;5041172;28;20060;-81
2023/08/21 05:26:01;;;;;;;12.20;11.00;;;20.30;99.90;;;;;;4993293;28;20045;-79
2023/08/21 05:28:27;;;;;;;13.98;11.75;;;20.40;99.90;;;;;;5018767;28;20033;-80
2023/08/21 05:30:53;;;;;;;14.30;11.82;;;20.40;99.90;;;;;;5020103;28;20030;-80
2023/08/21 05:33:20;;;;;;;12.57;11.27;;;20.40;99.90;;;;;;5029376;28;20116;-82
2023/08/21 05:35:48;;;;;;;12.85;11.55;;;20.50;99.90;;;;;;5011750;28;20029;-82
2023/08/21 05:38:14;;;;;;;13.40;11.60;;;20.50;99.90;;;;;;5026171;28;20136;-80
2023/08/21 05:40:43;;;;;;;19.13;16.67;;;20.60;99.90;;;;;;5030111;28;20041;-81
2023/08/21 05:43:09;;;;;;;14.65;12.98;;;20.70;99.90;;;;;;5021184;28;20038;-80
2023/08/21 05:45:37;;;;;;;14.80;13.27;;;20.90;99.90;;;;;;5008676;28;20109;-79
2023/08/21 05:48:04;;;;;;;19.23;16.70;;;21.10;99.90;;;;;;5027030;28;20026;-80
2023/08/21 05:50:30;;;;;;;17.10;14.95;;;21.30;99.90;;;;;;5034005;28;20120;-80
2023/08/21 05:52:57;;;;;;;19.38;15.95;;;21.50;99.90;;;;;;5023620;28;20131;-80
2023/08/21 05:55:23;;;;;;;17.35;14.20;;;21.70;99.90;;;;;;5014950;28;20038;-80
2023/08/21 05:57:50;;;;;;;16.98;15.27;;;21.90;99.90;;;;;;5013492;28;20041;-79
2023/08/21 06:00:17;;;;;;;17.08;13.63;;;22.20;99.90;;;;;;5025391;28;20093;-82
2023/08/21 06:02:43;;;;;;;14.18;12.77;;;22.50;99.90;;;;;;5020681;28;20619;-80
2023/08/21 06:05:15;;;;;;;15.00;13.30;;;22.80;99.90;;;;;;5030551;28;20022;-79
2023/08/21 06:07:42;;;;;;;15.57;13.00;;;23.10;99.90;;;;;;5006476;28;20040;-82
2023/08/21 06:10:14;;;;;;;14.38;12.85;;;23.30;99.90;;;;;;5009116;28;20030;-81
2023/08/21 06:12:41;;;;;;;15.05;12.68;;;23.50;99.90;;;;;;5024880;28;20042;-80
2023/08/21 06:15:08;;;;;;;15.02;12.65;;;23.70;99.90;;;;;;5006314;28;20030;-81
2023/08/21 06:17:35;;;;;;;14.15;12.15;;;23.90;99.90;;;;;;5012172;28;20677;-78
2023/08/21 06:20:00;;;;;;;14.38;12.88;;;24.20;99.90;;;;;;5016057;28;20441;-79
2023/08/21 06:22:26;;;;;;;13.07;11.77;;;24.40;99.90;;;;;;5026987;28;20061;-79
2023/08/21 06:24:52;;;;;;;14.68;12.93;;;24.60;99.90;;;;;;5010545;28;20030;-79
2023/08/21 06:27:19;;;;;;;14.68;12.15;;;24.80;99.90;;;;;;5031651;28;20108;-79
2023/08/21 06:29:44;;;;;;;13.77;11.85;;;25.00;99.90;;;;;;5017799;28;20038;-78
2023/08/21 06:32:10;;;;;;;13.48;12.15;;;25.10;99.90;;;;;;5018297;28;20843;-79
2023/08/21 06:34:37;;;;;;;15.68;12.32;;;25.30;99.90;;;;;;5023344;28;20038;-80
2023/08/21 06:37:03;;;;;;;13.90;11.65;;;25.40;99.90;;;;;;5019515;28;20041;-79
2023/08/21 06:39:31;;;;;;;12.70;10.98;;;25.50;99.90;;;;;;5007579;28;20053;-79
2023/08/21 06:41:57;;;;;;;12.30;11.00;;;25.70;99.90;;;;;;5016331;28;20053;-79
2023/08/21 06:44:31;;;;;;;12.30;10.88;;;25.90;99.90;;;;;;5011273;28;20033;-79
2023/08/21 06:46:57;;;;;;;12.32;11.02;;;26.10;99.90;;;;;;5005851;28;20022;-78
2023/08/21 06:49:23;;;;;;;11.38;10.15;;;26.30;99.90;;;;;;5018413;28;20030;-80
2023/08/21 06:51:49;;;;;;;12.00;10.63;;;26.40;99.90;;;;;;5010826;28;20054;-79
2023/08/21 06:54:33;;;;;;;11.55;10.35;;;26.60;99.90;;;;;;5011950;28;20133;-78
2023/08/21 06:56:59;;;;;;;11.57;10.38;;;26.80;99.90;;;;;;5014269;28;20113;-78
2023/08/21 06:59:25;;;;;;;11.38;10.15;;;27.00;99.90;;;;;;5016877;28;20068;-79
2023/08/21 07:01:51;;;;;;;13.10;11.52;;;27.10;99.90;;;;;;5013554;28;20037;-79
2023/08/21 07:04:17;;;;;;;12.35;9.52;;;27.10;99.90;;;;;;5009082;28;20038;-78
2023/08/21 07:06:42;;;;;;;11.50;10.35;;;27.20;99.90;;;;;;5016637;28;20538;-77
2023/08/21 07:09:08;;;;;;;11.52;10.35;;;27.30;99.90;;;;;;5013668;28;20109;-78
2023/08/21 07:11:34;;;;;;;11.65;10.32;;;27.40;99.90;;;;;;5014692;28;20040;-79
2023/08/21 07:14:19;;;;;;;12.02;10.93;;;27.50;99.90;;;;;;5009307;28;20121;-80
2023/08/21 07:16:45;;;;;;;10.73;9.73;;;27.60;99.90;;;;;;5008571;28;20042;-78
2023/08/21 07:19:11;;;;;;;11.60;10.40;;;27.60;99.90;;;;;;5013212;28;20045;-80
2023/08/21 07:21:38;;;;;;;11.60;10.43;;;27.80;99.90;;;;;;5016613;28;20604;-79
2023/08/21 07:24:04;;;;;;;12.18;10.98;;;27.80;99.90;;;;;;5012766;28;20033;-78
2023/08/21 07:26:30;;;;;;;11.93;10.75;;;27.90;99.90;;;;;;5009373;28;20029;-79
2023/08/21 07:28:59;;;;;;;14.07;11.48;;;28.00;99.90;;;;;;5013619;28;20037;-78
2023/08/21 07:31:25;;;;;;;12.20;10.35;;;28.00;99.90;;;;;;5011972;28;20594;-78
2023/08/21 07:33:51;;;;;;;11.20;10.20;;;28.00;99.90;;;;;;5008577;28;20124;-79
2023/08/21 07:36:17;;;;;;;12.02;10.38;;;28.00;99.90;;;;;;5013334;28;20065;-79
2023/08/21 07:38:46;;;;;;;15.57;11.25;;;28.00;99.90;;;;;;5013729;28;20102;-78
2023/08/21 07:41:13;;;;;;;17.17;13.50;;;28.10;99.90;;;;;;4998467;28;20030;-77
2023/08/21 07:43:42;;;;;;;13.63;12.10;;;28.10;99.90;;;;;;5018755;28;20108;-78
2023/08/21 07:46:15;;;;;;;11.88;10.43;;;28.00;99.90;;;;;;5004118;28;20490;-78
2023/08/21 07:48:42;;;;;;;12.43;9.75;;;27.80;99.90;;;;;;5013717;28;20034;-79
2023/08/21 07:51:08;;;;;;;12.02;10.82;;;27.90;99.90;;;;;;5011052;28;20645;-78
2023/08/21 07:53:34;;;;;;;11.70;10.13;;;27.90;99.90;;;;;;5008671;28;20061;-79
2023/08/21 07:56:01;;;;;;;10.45;9.45;;;28.00;99.90;;;;;;5021615;28;20523;-79
2023/08/21 07:58:27;;;;;;;11.40;10.20;;;28.00;99.90;;;;;;5007735;28;20026;-80
2023/08/21 08:00:59;;;;;;;10.93;9.93;;;28.10;99.90;;;;;;5011929;28;20590;-79
2023/08/21 08:03:25;;;;;;;18.50;9.90;;;28.10;99.90;;;;;;5014557;28;20028;-80
2023/08/21 08:05:50;;;;;;;12.77;9.30;;;28.10;99.90;;;;;;5005760;28;20022;-79
2023/08/21 08:08:19;;;;;;;14.07;9.85;;;28.10;99.90;;;;;;5013146;28;20045;-78
2023/08/21 08:10:45;;;;;;;12.25;10.18;;;28.10;99.90;;;;;;5013107;28;20080;-78
2023/08/21 08:13:10;;;;;;;11.40;10.18;;;28.20;99.90;;;;;;5018223;28;20030;-79
2023/08/21 08:15:36;;;;;;;14.68;10.20;;;28.10;99.90;;;;;;5013379;28;20042;-80
2023/08/21 08:18:03;;;;;;;10.98;9.82;;;28.00;99.90;;;;;;5010257;28;20026;-79
2023/08/21 08:20:29;;;;;;;13.10;10.68;;;28.00;99.90;;;;;;5013556;28;20042;-79
2023/08/21 08:22:56;;;;;;;10.52;9.43;;;28.00;99.90;;;;;;5030523;28;20034;-77
2023/08/21 08:25:22;;;;;;;11.27;9.38;;;28.10;99.90;;;;;;5004497;28;20037;-80
2023/08/21 08:27:48;;;;;;;11.88;9.43;;;28.10;99.90;;;;;;5002395;28;20065;-80
2023/08/21 08:30:14;;;;;;;10.40;9.20;;;28.20;99.90;;;;;;5012091;28;20093;-79
2023/08/21 08:32:44;;;;;;;10.35;9.35;;;28.20;99.90;;;;;;5018952;28;20041;-78
2023/08/21 08:35:14;;;;;;;10.75;9.75;;;28.30;99.90;;;;;;5014032;28;20033;-79
2023/08/21 08:37:43;;;;;;;11.65;9.85;;;28.30;99.90;;;;;;5023866;28;20057;-80
2023/08/21 08:40:11;;;;;;;11.68;9.70;;;28.30;99.90;;;;;;5011626;28;20030;-81
2023/08/21 08:42:36;;;;;;;11.88;9.15;;;28.40;99.90;;;;;;5009420;28;20052;-80
2023/08/21 08:45:03;;;;;;;10.25;9.02;;;28.30;99.90;;;;;;5014397;28;20467;-78
2023/08/21 08:47:33;;;;;;;11.13;9.32;;;28.20;99.90;;;;;;5007193;28;20128;-81
2023/08/21 08:50:01;;;;;;;10.35;9.27;;;28.20;99.90;;;;;;4999471;28;20038;-80
2023/08/21 08:52:27;;;;;;;11.85;8.77;;;28.20;99.90;;;;;;5009834;28;20034;-79
2023/08/21 08:54:55;;;;;;;10.93;8.95;;;28.20;99.90;;;;;;5009088;28;20041;-81
2023/08/21 08:57:21;;;;;;;15.25;9.65;;;28.10;99.90;;;;;;5007348;28;20086;-79
2023/08/21 08:59:47;;;;;;;9.77;8.68;;;28.20;99.90;;;;;;5005267;28;20034;-79
2023/08/21 09:02:12;;;;;;;9.40;8.43;;;28.10;99.90;;;;;;5007061;28;20037;-80
2023/08/21 09:04:38;;;;;;;9.73;8.70;;;28.10;99.90;;;;;;5016288;28;20387;-80
2023/08/21 09:07:12;;;;;;;11.18;8.40;;;28.10;99.90;;;;;;5009418;28;20076;-79
2023/08/21 09:09:39;;;;;;;8.82;8.00;;;28.10;99.90;;;;;;5009178;28;20076;-79
2023/08/21 09:12:13;;;;;;;12.25;8.77;;;28.00;99.90;;;;;;5003882;28;20030;-80
2023/08/21 09:14:40;;;;;;;12.15;9.35;;;28.00;99.90;;;;;;5012359;28;20048;-80
2023/08/21 09:17:06;;;;;;;11.85;8.75;;;28.00;99.90;;;;;;5019882;28;20163;-79
2023/08/21 09:19:32;;;;;;;10.70;7.88;;;28.00;99.90;;;;;;4999980;28;20044;-79
2023/08/21 09:21:58;;;;;;;9.05;8.15;;;28.00;99.90;;;;;;5003757;28;20026;-79
2023/08/21 09:24:24;;;;;;;9.60;8.55;;;28.00;99.90;;;;;;5017057;28;20403;-81
2023/08/21 09:26:51;;;;;;;9.45;8.52;;;28.00;99.90;;;;;;5014539;28;20037;-80
2023/08/21 09:29:17;;;;;;;11.13;7.72;;;28.10;99.90;;;;;;5004244;28;20053;-81
2023/08/21 09:31:45;;;;;;;7.28;5.65;;;28.10;99.90;;;;;;5014148;28;20045;-80
2023/08/21 09:34:11;;;;;;;8.75;6.90;;;28.10;99.90;;;;;;5025625;28;20034;-78
2023/08/21 09:36:39;;;;;;;9.75;5.97;;;28.00;99.90;;;;;;5011728;28;20042;-79
2023/08/21 09:39:06;;;;;;;8.40;7.00;;;28.10;99.90;;;;;;5013207;28;20443;-79
2023/08/21 09:41:32;;;;;;;8.23;6.97;;;28.00;99.90;;;;;;5029322;28;20022;-81
2023/08/21 09:44:01;;;;;;;7.65;5.72;;;28.00;99.90;;;;;;5018371;28;20540;-78
2023/08/21 09:46:27;;;;;;;5.90;4.72;;;28.10;99.90;;;;;;5012443;28;20033;-80
2023/08/21 09:48:54;;;;;;;6.28;4.32;;;28.10;99.90;;;;;;5004094;28;20068;-81
2023/08/21 09:51:20;;;;;;;6.38;4.50;;;28.10;99.90;;;;;;5011348;28;20053;-79
2023/08/21 09:53:50;;;;;;;6.47;4.93;;;28.10;98.20;;;;;;5016070;28;20101;-78
2023/08/21 09:56:18;;;;;;;6.88;5.65;;;28.20;99.50;;;;;;5018683;28;20050;-78
2023/08/21 09:58:47;;;;;;;6.50;4.30;;;28.20;99.90;;;;;;4995213;28;20125;-80
2023/08/21 10:01:15;;;;;;;7.18;4.35;;;28.20;99.80;;;;;;5006947;28;20375;-81
2023/08/21 10:03:42;;;;;;;6.82;3.90;;;28.30;97.30;;;;;;5013292;28;20494;-80
2023/08/21 10:06:12;;;;;;;4.15;3.65;;;28.30;96.50;;;;;;5010243;28;20038;-79
2023/08/21 10:08:42;;;;;;;6.40;4.97;;;28.30;94.00;;;;;;4991973;28;20045;-80
2023/08/21 10:11:09;;;;;;;6.45;4.70;;;28.30;98.00;;;;;;5005866;28;20021;-79
2023/08/21 10:13:38;;;;;;;5.38;4.35;;;28.30;97.00;;;;;;5024382;28;20560;-78
2023/08/21 10:16:05;;;;;;;5.78;4.20;;;28.30;97.30;;;;;;5015696;28;20042;-79
2023/08/21 10:18:33;;;;;;;6.45;4.30;;;28.40;98.50;;;;;;5001843;28;20037;-82
2023/08/21 10:21:25;;;;;;;5.63;4.60;;;28.40;98.90;;;;;;5011468;28;20014;-80
2023/08/21 10:23:54;;;;;;;5.40;4.05;;;28.40;95.10;;;;;;5011682;28;20049;-80
2023/08/21 10:26:22;;;;;;;3.97;3.05;;;28.40;95.30;;;;;;5009605;28;20030;-79
2023/08/21 10:29:06;;;;;;;3.42;2.95;;;28.40;92.40;;;;;;5006607;28;20037;-78
2023/08/21 10:31:40;;;;;;;4.82;3.60;;;28.50;92.50;;;;;;5020483;28;20677;-79
2023/08/21 10:34:11;;;;;;;3.80;3.15;;;28.50;95.40;;;;;;5012807;28;20654;-78
2023/08/21 10:36:36;;;;;;;4.35;3.88;;;28.50;92.80;;;;;;5017345;28;20036;-78
2023/08/21 10:39:04;;;;;;;4.00;3.60;;;28.50;92.00;;;;;;5007433;28;20022;-78
2023/08/21 10:41:30;;;;;;;4.72;3.55;;;28.60;93.10;;;;;;5023249;28;20057;-77
2023/08/21 10:43:55;;;;;;;4.38;3.60;;;28.60;93.00;;;;;;5022264;28;20026;-77
2023/08/21 10:46:21;;;;;;;9.38;4.60;;;28.60;91.80;;;;;;5012853;28;20030;-80
2023/08/21 10:48:47;;;;;;;4.97;3.70;;;28.60;91.20;;;;;;5006811;28;20068;-77
2023/08/21 10:51:13;;;;;;;6.22;3.97;;;28.70;90.90;;;;;;5013812;28;20033;-79
2023/08/21 10:53:41;;;;;;;4.60;4.03;;;28.70;91.50;;;;;;5027604;28;20029;-79
2023/08/21 10:56:07;;;;;;;4.70;4.15;;;28.70;93.50;;;;;;5014960;28;20042;-78
2023/08/21 10:58:40;;;;;;;5.57;3.92;;;28.70;93.30;;;;;;5005134;28;20117;-80
2023/08/21 11:01:06;;;;;;;4.82;4.18;;;28.70;93.00;;;;;;5009851;28;20083;-76
2023/08/21 11:03:32;;;;;;;6.88;4.28;;;28.80;92.80;;;;;;5018181;28;20026;-80
2023/08/21 11:06:05;;;;;;;6.97;4.18;;;28.80;94.10;;;;;;5008468;28;20030;-77
2023/08/21 11:08:33;;;;;;;4.55;4.05;;;28.80;93.50;;;;;;5002133;28;20050;-79
2023/08/21 11:10:59;;;;;;;6.45;4.30;;;28.90;91.90;;;;;;5015581;28;20033;-80
2023/08/21 11:13:25;;;;;;;5.18;4.32;;;29.10;90.50;;;;;;5036946;28;20036;-77
2023/08/21 11:16:01;;;;;;;4.63;3.97;;;29.10;89.40;;;;;;5019016;28;20470;-77
2023/08/21 11:18:31;;;;;;;5.25;4.70;;;29.10;91.60;;;;;;5021476;28;20039;-79
2023/08/21 11:21:08;;;;;;;6.97;4.00;;;29.10;91.50;;;;;;5009492;28;20056;-77
2023/08/21 11:23:35;;;;;;;4.35;3.95;;;29.10;93.30;;;;;;5019330;28;20028;-78
2023/08/21 11:26:03;;;;;;;4.60;4.03;;;29.20;93.00;;;;;;5011536;28;20034;-79
2023/08/21 11:28:30;;;;;;;3.83;3.40;;;29.30;91.30;;;;;;5000825;28;20084;-80
2023/08/21 11:30:57;;;;;;;5.38;3.33;;;29.40;92.30;;;;;;5012418;28;20022;-78
2023/08/21 11:33:23;;;;;;;6.18;4.00;;;29.40;90.30;;;;;;5020799;28;20091;-79
2023/08/21 11:35:50;;;;;;;3.88;3.53;;;29.40;91.30;;;;;;5009150;28;20108;-79
2023/08/21 11:38:17;;;;;;;4.00;3.60;;;29.50;91.40;;;;;;5009539;28;20486;-81
2023/08/21 11:40:52;;;;;;;4.22;3.25;;;29.60;91.40;;;;;;5032871;28;20044;-80
2023/08/21 11:43:19;;;;;;;4.95;3.50;;;29.60;91.60;;;;;;5019899;28;20095;-78
2023/08/21 11:45:46;;;;;;;3.70;3.40;;;29.70;90.10;;;;;;5007541;28;20072;-80
2023/08/21 11:48:11;;;;;;;3.90;3.60;;;29.70;89.10;;;;;;5016289;28;20058;-80
2023/08/21 11:50:37;;;;;;;4.53;3.83;;;29.80;89.10;;;;;;5004442;28;20032;-78
2023/08/21 11:53:03;;;;;;;3.05;2.85;;;29.90;91.10;;;;;;5007724;28;20495;-79
2023/08/21 11:55:29;;;;;;;4.45;3.38;;;30.00;88.70;;;;;;5004874;28;20565;-78
2023/08/21 11:57:55;;;;;;;3.78;3.47;;;30.10;91.00;;;;;;4999454;28;20106;-78
2023/08/21 12:00:28;;;;;;;7.63;3.50;;;30.20;80.40;;;;;;5005590;28;20064;-79
2023/08/21 12:03:00;;;;;;;4.50;3.25;;;30.30;82.60;;;;;;5013865;28;20060;-77
2023/08/21 12:05:27;;;;;;;5.28;3.40;;;30.20;86.10;;;;;;5012964;28;20608;-78
2023/08/21 12:07:53;;;;;;;3.72;3.30;;;30.20;88.30;;;;;;5002175;28;20503;-79
2023/08/21 12:10:29;;;;;;;3.38;3.03;;;30.30;89.70;;;;;;5009959;28;20038;-79
2023/08/21 12:12:55;;;;;;;4.22;2.88;;;30.40;90.30;;;;;;5020295;28;20091;-79
2023/08/21 12:15:21;;;;;;;6.10;3.22;;;30.50;84.70;;;;;;5016130;28;20050;-79
2023/08/21 12:17:47;;;;;;;3.00;2.75;;;30.70;88.10;;;;;;5001929;28;20054;-79
2023/08/21 12:20:13;;;;;;;3.65;2.47;;;30.90;87.30;;;;;;5007842;28;20026;-80
2023/08/21 12:22:40;;;;;;;2.88;2.42;;;31.00;85.30;;;;;;5016136;28;20093;-78
2023/08/21 12:25:07;;;;;;;2.60;2.40;;;31.10;77.90;;;;;;5016334;28;20110;-80
2023/08/21 12:27:33;;;;;;;3.83;2.35;;;31.20;82.50;;;;;;5002061;28;20126;-78
2023/08/21 12:29:58;;;;;;;3.95;3.20;;;31.30;80.40;;;;;;5011106;28;20062;-78
2023/08/21 12:32:24;;;;;;;2.65;2.45;;;31.50;85.10;;;;;;5001434;28;20033;-79
2023/08/21 12:34:50;;;;;;;4.07;2.40;;;31.50;86.10;;;;;;5015963;28;20061;-78